sensor_id;sensor_type;location;lat;lon;timestamp;pressure;altitude;pressure_sealevel;temperature;humidity
15195;BME280;7698;42.478;23.756;2023-02-23T00:01:14;93178.53;;;4.74;100.00
15195;BME280;7698;42.478;23.756;2023-02-23T00:03:41;93183.19;;;4.79;100.00
15195;BME280;7698;42.478;23.756;2023-02-23T00:06:08;93183.19;;;4.86;100.00
15195;BME280;7698;42.478;23.756;2023-02-23T00:08:36;93181.78;;;4.83;100.00
15195;BME280;7698;42.478;23.756;2023-02-23T00:11:04;93184.22;;;4.78;100.00
15195;BME280;7698;42.478;23.756;2023-02-23T00:13:31;93187.06;;;4.70;100.00
15195;BME280;7698;42.478;23.756;2023-02-23T00:16:04;93185.09;;;4.59;100.00
15195;BME280;7698;42.478;23.756;2023-02-23T00:18:33;93181.44;;;4.47;100.00
15195;BME280;7698;42.478;23.756;2023-02-23T00:21:11;93185.50;;;4.42;100.00
15195;BME280;7698;42.478;23.756;2023-02-23T00:23:40;93193.25;;;4.24;100.00
15195;BME280;7698;42.478;23.756;2023-02-23T00:26:07;93194.84;;;4.12;100.00
15195;BME280;7698;42.478;23.756;2023-02-23T00:28:34;93188.75;;;3.92;100.00
15195;BME280;7698;42.478;23.756;2023-02-23T00:31:01;93199.13;;;3.80;100.00
15195;BME280;7698;42.478;23.756;2023-02-23T00:33:28;93196.25;;;3.68;100.00
15195;BME280;7698;42.478;23.756;2023-02-23T00:36:02;93195.00;;;3.51;100.00
15195;BME280;7698;42.478;23.756;2023-02-23T00:38:29;93199.19;;;3.32;100.00
15195;BME280;7698;42.478;23.756;2023-02-23T00:41:03;93193.06;;;3.19;100.00
15195;BME280;7698;42.478;23.756;2023-02-23T00:43:33;93193.00;;;3.05;100.00
15195;BME280;7698;42.478;23.756;2023-02-23T00:45:59;93195.59;;;2.92;100.00
15195;BME280;7698;42.478;23.756;2023-02-23T00:48:30;93190.09;;;2.87;100.00
15195;BME280;7698;42.478;23.756;2023-02-23T00:50:59;93184.59;;;2.82;100.00
15195;BME280;7698;42.478;23.756;2023-02-23T00:53:26;93183.59;;;2.83;100.00
15195;BME280;7698;42.478;23.756;2023-02-23T00:55:53;93190.09;;;2.87;100.00
15195;BME280;7698;42.478;23.756;2023-02-23T00:58:21;93187.47;;;2.87;100.00
15195;BME280;7698;42.478;23.756;2023-02-23T01:00:47;93193.75;;;2.86;100.00
15195;BME280;7698;42.478;23.756;2023-02-23T01:03:14;93182.56;;;2.84;100.00
15195;BME280;7698;42.478;23.756;2023-02-23T01:05:41;93187.19;;;2.76;100.00
15195;BME280;7698;42.478;23.756;2023-02-23T01:08:10;93191.63;;;2.68;100.00
15195;BME280;7698;42.478;23.756;2023-02-23T01:10:41;93192.84;;;2.66;100.00
15195;BME280;7698;42.478;23.756;2023-02-23T01:13:09;93189.56;;;2.64;100.00
15195;BME280;7698;42.478;23.756;2023-02-23T01:15:40;93187.00;;;2.70;100.00
15195;BME280;7698;42.478;23.756;2023-02-23T01:18:08;93189.25;;;2.80;100.00
15195;BME280;7698;42.478;23.756;2023-02-23T01:20:35;93186.06;;;2.91;100.00
15195;BME280;7698;42.478;23.756;2023-02-23T01:23:03;93188.53;;;2.99;100.00
15195;BME280;7698;42.478;23.756;2023-02-23T01:25:31;93177.81;;;3.08;100.00
15195;BME280;7698;42.478;23.756;2023-02-23T01:27:58;93177.03;;;3.14;100.00
15195;BME280;7698;42.478;23.756;2023-02-23T01:30:25;93184.97;;;3.20;100.00
15195;BME280;7698;42.478;23.756;2023-02-23T01:32:52;93180.13;;;3.24;100.00
15195;BME280;7698;42.478;23.756;2023-02-23T01:35:19;93182.56;;;3.25;100.00
15195;BME280;7698;42.478;23.756;2023-02-23T01:37:46;93173.22;;;3.23;100.00
15195;BME280;7698;42.478;23.756;2023-02-23T01:40:15;93177.66;;;3.22;100.00
15195;BME280;7698;42.478;23.756;2023-02-23T01:42:56;93172.41;;;3.22;100.00
15195;BME280;7698;42.478;23.756;2023-02-23T01:45:29;93174.84;;;3.24;100.00
15195;BME280;7698;42.478;23.756;2023-02-23T01:47:59;93180.13;;;3.24;100.00
15195;BME280;7698;42.478;23.756;2023-02-23T01:50:31;93178.47;;;3.23;100.00
15195;BME280;7698;42.478;23.756;2023-02-23T01:53:00;93187.41;;;3.28;100.00
15195;BME280;7698;42.478;23.756;2023-02-23T01:55:28;93177.09;;;3.40;100.00
15195;BME280;7698;42.478;23.756;2023-02-23T01:58:03;93177.31;;;3.45;100.00
15195;BME280;7698;42.478;23.756;2023-02-23T02:00:31;93180.16;;;3.44;100.00
15195;BME280;7698;42.478;23.756;2023-02-23T02:03:05;93176.72;;;3.56;100.00
15195;BME280;7698;42.478;23.756;2023-02-23T02:05:37;93174.91;;;3.50;100.00
15195;BME280;7698;42.478;23.756;2023-02-23T02:08:06;93172.47;;;3.49;100.00
15195;BME280;7698;42.478;23.756;2023-02-23T02:10:35;93175.09;;;3.49;100.00
15195;BME280;7698;42.478;23.756;2023-02-23T02:13:08;93171.66;;;3.55;100.00
15195;BME280;7698;42.478;23.756;2023-02-23T02:15:51;93170.25;;;3.52;100.00
15195;BME280;7698;42.478;23.756;2023-02-23T02:18:27;93175.28;;;3.40;100.00
15195;BME280;7698;42.478;23.756;2023-02-23T02:21:31;93170.78;;;3.28;100.00
15195;BME280;7698;42.478;23.756;2023-02-23T02:27:33;93180.41;;;3.01;100.00
15195;BME280;7698;42.478;23.756;2023-02-23T02:30:41;93184.81;;;2.87;100.00
15195;BME280;7698;42.478;23.756;2023-02-23T02:36:49;93176.22;;;2.65;100.00
15195;BME280;7698;42.478;23.756;2023-02-23T02:39:26;93177.41;;;2.63;100.00
15195;BME280;7698;42.478;23.756;2023-02-23T02:42:07;93169.50;;;2.63;100.00
15195;BME280;7698;42.478;23.756;2023-02-23T02:44:42;93176.97;;;2.59;100.00
15195;BME280;7698;42.478;23.756;2023-02-23T02:47:17;93177.56;;;2.55;100.00
15195;BME280;7698;42.478;23.756;2023-02-23T02:49:50;93178.94;;;2.51;100.00
15195;BME280;7698;42.478;23.756;2023-02-23T02:52:23;93175.28;;;2.45;100.00
15195;BME280;7698;42.478;23.756;2023-02-23T02:54:52;93180.75;;;2.44;100.00
15195;BME280;7698;42.478;23.756;2023-02-23T02:57:25;93180.34;;;2.47;100.00
15195;BME280;7698;42.478;23.756;2023-02-23T02:59:53;93183.78;;;2.47;100.00
15195;BME280;7698;42.478;23.756;2023-02-23T03:02:39;93189.88;;;2.48;100.00
15195;BME280;7698;42.478;23.756;2023-02-23T03:05:26;93184.81;;;2.46;100.00
15195;BME280;7698;42.478;23.756;2023-02-23T03:08:18;93190.66;;;2.42;100.00
15195;BME280;7698;42.478;23.756;2023-02-23T03:11:05;93188.59;;;2.37;100.00
15195;BME280;7698;42.478;23.756;2023-02-23T03:14:01;93183.28;;;2.30;100.00
15195;BME280;7698;42.478;23.756;2023-02-23T03:16:55;93190.13;;;2.25;100.00
15195;BME280;7698;42.478;23.756;2023-02-23T03:19:51;93189.06;;;2.19;100.00
15195;BME280;7698;42.478;23.756;2023-02-23T03:22:41;93192.94;;;2.17;100.00
15195;BME280;7698;42.478;23.756;2023-02-23T03:25:40;93189.28;;;2.18;100.00
15195;BME280;7698;42.478;23.756;2023-02-23T03:28:30;93187.50;;;2.25;100.00
15195;BME280;7698;42.478;23.756;2023-02-23T03:31:20;93188.75;;;2.29;100.00
15195;BME280;7698;42.478;23.756;2023-02-23T03:34:11;93187.94;;;2.28;100.00
15195;BME280;7698;42.478;23.756;2023-02-23T03:37:01;93183.66;;;2.27;100.00
15195;BME280;7698;42.478;23.756;2023-02-23T03:39:51;93193.44;;;2.33;100.00
15195;BME280;7698;42.478;23.756;2023-02-23T03:42:41;93194.50;;;2.39;100.00
15195;BME280;7698;42.478;23.756;2023-02-23T03:45:26;93187.84;;;2.43;100.00
15195;BME280;7698;42.478;23.756;2023-02-23T03:48:12;93197.56;;;2.43;100.00
15195;BME280;7698;42.478;23.756;2023-02-23T03:51:02;93195.06;;;2.34;100.00
15195;BME280;7698;42.478;23.756;2023-02-23T03:53:52;93196.22;;;2.25;100.00
15195;BME280;7698;42.478;23.756;2023-02-23T03:56:40;93192.53;;;2.20;100.00
15195;BME280;7698;42.478;23.756;2023-02-23T03:59:29;93195.13;;;2.13;100.00
15195;BME280;7698;42.478;23.756;2023-02-23T04:02:16;93196.50;;;2.09;100.00
15195;BME280;7698;42.478;23.756;2023-02-23T04:05:05;93194.88;;;2.08;100.00
15195;BME280;7698;42.478;23.756;2023-02-23T04:07:51;93197.53;;;2.08;100.00
15195;BME280;7698;42.478;23.756;2023-02-23T04:10:43;93189.00;;;2.06;100.00
15195;BME280;7698;42.478;23.756;2023-02-23T04:13:30;93190.19;;;2.03;100.00
15195;BME280;7698;42.478;23.756;2023-02-23T04:16:02;93197.47;;;2.01;100.00
15195;BME280;7698;42.478;23.756;2023-02-23T04:18:31;93198.66;;;1.99;100.00
15195;BME280;7698;42.478;23.756;2023-02-23T04:20:59;93194.38;;;1.98;100.00
15195;BME280;7698;42.478;23.756;2023-02-23T04:23:26;93194.75;;;1.95;100.00
15195;BME280;7698;42.478;23.756;2023-02-23T04:25:54;93189.88;;;1.92;100.00
15195;BME280;7698;42.478;23.756;2023-02-23T04:28:22;93192.50;;;1.92;100.00
15195;BME280;7698;42.478;23.756;2023-02-23T04:30:49;93195.97;;;1.92;100.00
15195;BME280;7698;42.478;23.756;2023-02-23T04:33:19;93197.41;;;1.95;100.00
15195;BME280;7698;42.478;23.756;2023-02-23T04:35:46;93193.56;;;1.97;100.00
15195;BME280;7698;42.478;23.756;2023-02-23T04:38:13;93194.25;;;2.06;100.00
15195;BME280;7698;42.478;23.756;2023-02-23T04:40:40;93197.56;;;2.15;100.00
15195;BME280;7698;42.478;23.756;2023-02-23T04:43:08;93197.38;;;2.16;100.00
15195;BME280;7698;42.478;23.756;2023-02-23T04:45:36;93202.22;;;2.13;100.00
15195;BME280;7698;42.478;23.756;2023-02-23T04:48:03;93201.34;;;2.06;100.00
15195;BME280;7698;42.478;23.756;2023-02-23T04:50:31;93193.38;;;1.99;100.00
15195;BME280;7698;42.478;23.756;2023-02-23T04:52:58;93202.28;;;1.98;100.00
15195;BME280;7698;42.478;23.756;2023-02-23T04:55:25;93205.34;;;2.01;100.00
15195;BME280;7698;42.478;23.756;2023-02-23T04:57:56;93203.34;;;2.03;100.00
15195;BME280;7698;42.478;23.756;2023-02-23T05:00:23;93200.16;;;2.08;100.00
15195;BME280;7698;42.478;23.756;2023-02-23T05:02:50;93202.22;;;2.13;100.00
15195;BME280;7698;42.478;23.756;2023-02-23T05:05:17;93208.28;;;2.13;100.00
15195;BME280;7698;42.478;23.756;2023-02-23T05:07:46;93206.66;;;2.12;100.00
15195;BME280;7698;42.478;23.756;2023-02-23T05:10:14;93210.94;;;2.13;100.00
15195;BME280;7698;42.478;23.756;2023-02-23T05:12:40;93208.09;;;2.15;100.00
15195;BME280;7698;42.478;23.756;2023-02-23T05:15:08;93204.28;;;2.17;100.00
15195;BME280;7698;42.478;23.756;2023-02-23T05:17:37;93208.31;;;2.20;100.00
15195;BME280;7698;42.478;23.756;2023-02-23T05:20:06;93209.13;;;2.20;100.00
15195;BME280;7698;42.478;23.756;2023-02-23T05:22:33;93212.41;;;2.22;100.00
15195;BME280;7698;42.478;23.756;2023-02-23T05:25:01;93217.28;;;2.25;100.00
15195;BME280;7698;42.478;23.756;2023-02-23T05:27:28;93219.91;;;2.25;100.00
15195;BME280;7698;42.478;23.756;2023-02-23T05:29:56;93219.72;;;2.27;100.00
15195;BME280;7698;42.478;23.756;2023-02-23T05:32:23;93223.44;;;2.32;100.00
15195;BME280;7698;42.478;23.756;2023-02-23T05:34:50;93227.94;;;2.38;100.00
15195;BME280;7698;42.478;23.756;2023-02-23T05:37:17;93230.00;;;2.43;100.00
15195;BME280;7698;42.478;23.756;2023-02-23T05:39:45;93239.38;;;2.52;100.00
15195;BME280;7698;42.478;23.756;2023-02-23T05:42:13;93234.78;;;2.61;100.00
15195;BME280;7698;42.478;23.756;2023-02-23T05:44:40;93237.88;;;2.71;100.00
15195;BME280;7698;42.478;23.756;2023-02-23T05:47:07;93242.84;;;2.87;100.00
15195;BME280;7698;42.478;23.756;2023-02-23T05:49:33;93246.00;;;3.11;100.00
15195;BME280;7698;42.478;23.756;2023-02-23T05:52:00;93252.84;;;3.46;100.00
15195;BME280;7698;42.478;23.756;2023-02-23T05:54:27;93243.59;;;3.90;100.00
15195;BME280;7698;42.478;23.756;2023-02-23T05:56:54;93250.19;;;4.33;100.00
15195;BME280;7698;42.478;23.756;2023-02-23T05:59:22;93256.25;;;4.80;100.00
15195;BME280;7698;42.478;23.756;2023-02-23T06:01:48;93254.53;;;5.19;100.00
15195;BME280;7698;42.478;23.756;2023-02-23T06:04:15;93251.63;;;5.40;100.00
15195;BME280;7698;42.478;23.756;2023-02-23T06:06:42;93253.16;;;5.61;100.00
15195;BME280;7698;42.478;23.756;2023-02-23T06:09:09;93258.75;;;5.91;100.00
15195;BME280;7698;42.478;23.756;2023-02-23T06:11:36;93262.09;;;6.11;100.00
15195;BME280;7698;42.478;23.756;2023-02-23T06:14:03;93267.25;;;6.31;99.59
15195;BME280;7698;42.478;23.756;2023-02-23T06:16:31;93268.03;;;6.63;98.12
15195;BME280;7698;42.478;23.756;2023-02-23T06:18:58;93269.19;;;7.17;96.73
15195;BME280;7698;42.478;23.756;2023-02-23T06:21:24;93281.31;;;7.67;91.02
15195;BME280;7698;42.478;23.756;2023-02-23T06:23:51;93270.91;;;8.32;88.99
15195;BME280;7698;42.478;23.756;2023-02-23T06:26:18;93273.25;;;9.29;85.57
15195;BME280;7698;42.478;23.756;2023-02-23T06:28:45;93284.69;;;10.44;76.50
15195;BME280;7698;42.478;23.756;2023-02-23T06:31:12;93278.78;;;11.38;68.80
15195;BME280;7698;42.478;23.756;2023-02-23T06:33:41;93291.88;;;12.38;61.04
15195;BME280;7698;42.478;23.756;2023-02-23T06:36:07;93291.81;;;13.09;56.74
15195;BME280;7698;42.478;23.756;2023-02-23T06:38:35;93300.13;;;13.81;51.73
15195;BME280;7698;42.478;23.756;2023-02-23T06:41:06;93296.72;;;14.43;50.52
15195;BME280;7698;42.478;23.756;2023-02-23T06:43:33;93302.25;;;14.99;48.08
15195;BME280;7698;42.478;23.756;2023-02-23T06:46:00;93300.13;;;15.37;47.07
15195;BME280;7698;42.478;23.756;2023-02-23T06:48:27;93309.03;;;15.73;44.16
15195;BME280;7698;42.478;23.756;2023-02-23T06:50:58;93307.69;;;15.85;42.40
15195;BME280;7698;42.478;23.756;2023-02-23T06:53:25;93309.84;;;15.83;42.48
15195;BME280;7698;42.478;23.756;2023-02-23T06:55:52;93306.88;;;15.75;41.99
15195;BME280;7698;42.478;23.756;2023-02-23T06:58:18;93310.13;;;15.56;43.30
15195;BME280;7698;42.478;23.756;2023-02-23T07:00:45;93301.75;;;15.43;42.55
15195;BME280;7698;42.478;23.756;2023-02-23T07:03:12;93296.91;;;15.45;45.08
15195;BME280;7698;42.478;23.756;2023-02-23T07:05:39;93293.66;;;15.43;43.02
15195;BME280;7698;42.478;23.756;2023-02-23T07:08:07;93302.03;;;15.72;43.71
15195;BME280;7698;42.478;23.756;2023-02-23T07:10:34;93301.75;;;15.78;42.47
15195;BME280;7698;42.478;23.756;2023-02-23T07:13:01;93297.44;;;15.82;42.95
15195;BME280;7698;42.478;23.756;2023-02-23T07:15:28;93293.41;;;15.75;43.68
15195;BME280;7698;42.478;23.756;2023-02-23T07:17:54;93292.06;;;15.21;42.98
15195;BME280;7698;42.478;23.756;2023-02-23T07:20:21;93293.59;;;14.87;44.50
15195;BME280;7698;42.478;23.756;2023-02-23T07:22:48;93300.00;;;14.66;44.57
15195;BME280;7698;42.478;23.756;2023-02-23T07:25:17;93290.75;;;14.36;44.80
15195;BME280;7698;42.478;23.756;2023-02-23T07:27:44;93292.03;;;14.23;46.92
15195;BME280;7698;42.478;23.756;2023-02-23T07:30:12;93294.75;;;14.29;47.49
15195;BME280;7698;42.478;23.756;2023-02-23T07:32:39;93287.06;;;14.42;46.28
15195;BME280;7698;42.478;23.756;2023-02-23T07:35:06;93282.94;;;14.35;45.93
15195;BME280;7698;42.478;23.756;2023-02-23T07:37:33;93287.44;;;14.14;46.05
15195;BME280;7698;42.478;23.756;2023-02-23T07:40:00;93287.63;;;14.02;46.92
15195;BME280;7698;42.478;23.756;2023-02-23T07:42:29;93281.94;;;13.88;47.34
15195;BME280;7698;42.478;23.756;2023-02-23T07:44:55;93288.03;;;13.79;47.67
15195;BME280;7698;42.478;23.756;2023-02-23T07:47:22;93284.56;;;13.78;47.58
15195;BME280;7698;42.478;23.756;2023-02-23T07:49:55;93286.16;;;13.79;48.07
15195;BME280;7698;42.478;23.756;2023-02-23T07:52:22;93289.91;;;13.78;48.20
15195;BME280;7698;42.478;23.756;2023-02-23T07:54:49;93279.28;;;13.94;48.10
15195;BME280;7698;42.478;23.756;2023-02-23T07:57:16;93288.19;;;14.04;48.69
15195;BME280;7698;42.478;23.756;2023-02-23T07:59:44;93283.44;;;14.21;47.51
15195;BME280;7698;42.478;23.756;2023-02-23T08:02:12;93284.66;;;14.46;47.49
15195;BME280;7698;42.478;23.756;2023-02-23T08:04:39;93276.31;;;14.47;47.24
15195;BME280;7698;42.478;23.756;2023-02-23T08:07:08;93287.06;;;14.47;47.84
15195;BME280;7698;42.478;23.756;2023-02-23T08:09:36;93290.53;;;14.43;46.73
15195;BME280;7698;42.478;23.756;2023-02-23T08:12:03;93278.41;;;14.40;48.63
15195;BME280;7698;42.478;23.756;2023-02-23T08:14:30;93284.41;;;14.63;47.26
15195;BME280;7698;42.478;23.756;2023-02-23T08:16:58;93282.75;;;14.51;47.16
15195;BME280;7698;42.478;23.756;2023-02-23T08:19:25;93278.34;;;14.25;47.36
15195;BME280;7698;42.478;23.756;2023-02-23T08:21:53;93280.47;;;14.23;48.37
15195;BME280;7698;42.478;23.756;2023-02-23T08:24:20;93282.09;;;14.24;48.13
15195;BME280;7698;42.478;23.756;2023-02-23T08:26:47;93282.16;;;14.34;48.15
15195;BME280;7698;42.478;23.756;2023-02-23T08:29:15;93281.63;;;14.37;47.80
15195;BME280;7698;42.478;23.756;2023-02-23T08:31:42;93275.53;;;14.62;48.96
15195;BME280;7698;42.478;23.756;2023-02-23T08:34:10;93278.03;;;14.94;47.51
15195;BME280;7698;42.478;23.756;2023-02-23T08:36:37;93284.75;;;15.07;46.76
15195;BME280;7698;42.478;23.756;2023-02-23T08:39:05;93282.91;;;15.02;46.74
15195;BME280;7698;42.478;23.756;2023-02-23T08:41:34;93281.03;;;15.23;46.93
15195;BME280;7698;42.478;23.756;2023-02-23T08:44:01;93278.59;;;15.37;46.17
15195;BME280;7698;42.478;23.756;2023-02-23T08:46:28;93280.25;;;15.58;46.54
15195;BME280;7698;42.478;23.756;2023-02-23T08:48:55;93285.00;;;16.12;47.46
15195;BME280;7698;42.478;23.756;2023-02-23T08:51:24;93286.78;;;16.37;44.09
15195;BME280;7698;42.478;23.756;2023-02-23T08:53:51;93295.69;;;16.32;45.39
15195;BME280;7698;42.478;23.756;2023-02-23T08:56:18;93291.31;;;16.46;44.78
15195;BME280;7698;42.478;23.756;2023-02-23T08:58:45;93288.63;;;16.46;44.52
15195;BME280;7698;42.478;23.756;2023-02-23T09:01:16;93279.16;;;16.54;44.14
15195;BME280;7698;42.478;23.756;2023-02-23T09:03:43;93287.19;;;16.69;43.81
15195;BME280;7698;42.478;23.756;2023-02-23T09:06:13;93287.44;;;16.78;43.90
15195;BME280;7698;42.478;23.756;2023-02-23T09:08:42;93289.03;;;16.79;44.36
15195;BME280;7698;42.478;23.756;2023-02-23T09:11:08;93283.91;;;16.82;44.94
15195;BME280;7698;42.478;23.756;2023-02-23T09:13:35;93283.06;;;16.87;43.66
15195;BME280;7698;42.478;23.756;2023-02-23T09:16:02;93281.00;;;16.69;44.96
15195;BME280;7698;42.478;23.756;2023-02-23T09:18:29;93289.56;;;16.86;45.04
15195;BME280;7698;42.478;23.756;2023-02-23T09:20:57;93284.00;;;16.67;43.68
15195;BME280;7698;42.478;23.756;2023-02-23T09:23:27;93279.88;;;16.80;44.71
15195;BME280;7698;42.478;23.756;2023-02-23T09:25:55;93277.09;;;16.95;44.18
15195;BME280;7698;42.478;23.756;2023-02-23T09:28:22;93276.16;;;17.15;44.16
15195;BME280;7698;42.478;23.756;2023-02-23T09:30:50;93281.75;;;17.23;44.96
15195;BME280;7698;42.478;23.756;2023-02-23T09:33:16;93288.09;;;17.43;44.38
15195;BME280;7698;42.478;23.756;2023-02-23T09:35:43;93281.56;;;17.83;43.48
15195;BME280;7698;42.478;23.756;2023-02-23T09:38:10;93279.56;;;17.93;41.77
15195;BME280;7698;42.478;23.756;2023-02-23T09:40:43;93290.56;;;18.02;42.36
15195;BME280;7698;42.478;23.756;2023-02-23T09:43:14;93284.63;;;17.76;42.60
15195;BME280;7698;42.478;23.756;2023-02-23T09:45:48;93287.31;;;17.76;43.11
15195;BME280;7698;42.478;23.756;2023-02-23T09:48:18;93273.81;;;17.76;42.64
15195;BME280;7698;42.478;23.756;2023-02-23T09:50:49;93272.50;;;17.98;42.84
15195;BME280;7698;42.478;23.756;2023-02-23T09:53:28;93281.97;;;17.71;42.46
15195;BME280;7698;42.478;23.756;2023-02-23T09:55:57;93274.63;;;17.77;43.41
15195;BME280;7698;42.478;23.756;2023-02-23T09:58:27;93286.31;;;18.20;41.90
15195;BME280;7698;42.478;23.756;2023-02-23T10:01:19;93275.41;;;18.30;41.14
15195;BME280;7698;42.478;23.756;2023-02-23T10:03:51;93278.03;;;18.35;41.33
15195;BME280;7698;42.478;23.756;2023-02-23T10:06:21;93277.47;;;18.62;42.12
15195;BME280;7698;42.478;23.756;2023-02-23T10:08:59;93275.34;;;18.35;40.18
15195;BME280;7698;42.478;23.756;2023-02-23T10:11:34;93278.34;;;18.57;41.07
15195;BME280;7698;42.478;23.756;2023-02-23T10:14:22;93270.78;;;18.78;41.45
15195;BME280;7698;42.478;23.756;2023-02-23T10:17:04;93263.78;;;19.15;40.38
15195;BME280;7698;42.478;23.756;2023-02-23T10:19:40;93261.81;;;18.83;40.94
15195;BME280;7698;42.478;23.756;2023-02-23T10:22:10;93265.44;;;18.92;40.72
15195;BME280;7698;42.478;23.756;2023-02-23T10:24:42;93262.84;;;18.87;39.48
15195;BME280;7698;42.478;23.756;2023-02-23T10:27:14;93261.66;;;18.93;41.03
15195;BME280;7698;42.478;23.756;2023-02-23T10:29:47;93261.16;;;19.10;40.20
15195;BME280;7698;42.478;23.756;2023-02-23T10:32:19;93258.00;;;19.21;39.59
15195;BME280;7698;42.478;23.756;2023-02-23T10:34:51;93252.94;;;19.52;40.22
15195;BME280;7698;42.478;23.756;2023-02-23T10:37:18;93252.84;;;19.90;38.81
15195;BME280;7698;42.478;23.756;2023-02-23T10:39:45;93253.66;;;19.90;38.92
15195;BME280;7698;42.478;23.756;2023-02-23T10:42:17;93245.78;;;19.75;38.97
15195;BME280;7698;42.478;23.756;2023-02-23T10:44:47;93248.56;;;19.70;38.74
15195;BME280;7698;42.478;23.756;2023-02-23T10:47:18;93239.78;;;19.78;38.58
15195;BME280;7698;42.478;23.756;2023-02-23T10:49:47;93238.41;;;19.94;38.84
15195;BME280;7698;42.478;23.756;2023-02-23T10:52:17;93237.81;;;20.25;37.36
15195;BME280;7698;42.478;23.756;2023-02-23T10:54:46;93233.81;;;20.22;37.29
15195;BME280;7698;42.478;23.756;2023-02-23T10:57:24;93235.63;;;19.48;38.31
15195;BME280;7698;42.478;23.756;2023-02-23T11:00:05;93232.59;;;19.55;38.72
15195;BME280;7698;42.478;23.756;2023-02-23T11:02:33;93226.75;;;19.29;38.68
15195;BME280;7698;42.478;23.756;2023-02-23T11:05:01;93225.69;;;19.44;39.47
15195;BME280;7698;42.478;23.756;2023-02-23T11:07:30;93227.28;;;19.96;38.17
15195;BME280;7698;42.478;23.756;2023-02-23T11:09:57;93229.34;;;19.85;37.92
15195;BME280;7698;42.478;23.756;2023-02-23T11:12:26;93223.13;;;19.99;37.72
15195;BME280;7698;42.478;23.756;2023-02-23T11:15:25;93223.72;;;19.82;37.50
15195;BME280;7698;42.478;23.756;2023-02-23T11:17:54;93226.56;;;19.90;38.05
15195;BME280;7698;42.478;23.756;2023-02-23T11:20:25;93212.38;;;19.66;37.39
15195;BME280;7698;42.478;23.756;2023-02-23T11:22:54;93207.47;;;19.68;38.58
15195;BME280;7698;42.478;23.756;2023-02-23T11:25:25;93217.91;;;19.88;39.00
15195;BME280;7698;42.478;23.756;2023-02-23T11:27:53;93215.03;;;20.26;38.24
15195;BME280;7698;42.478;23.756;2023-02-23T11:30:24;93207.69;;;20.68;37.66
15195;BME280;7698;42.478;23.756;2023-02-23T11:32:55;93212.94;;;20.64;37.14
15195;BME280;7698;42.478;23.756;2023-02-23T11:35:29;93203.09;;;20.41;37.06
15195;BME280;7698;42.478;23.756;2023-02-23T11:37:56;93212.72;;;20.06;37.41
15195;BME280;7698;42.478;23.756;2023-02-23T11:40:25;93210.63;;;19.56;37.68
15195;BME280;7698;42.478;23.756;2023-02-23T11:42:54;93203.13;;;19.35;38.91
15195;BME280;7698;42.478;23.756;2023-02-23T11:45:24;93205.50;;;19.55;39.20
15195;BME280;7698;42.478;23.756;2023-02-23T11:47:54;93209.53;;;19.71;38.88
15195;BME280;7698;42.478;23.756;2023-02-23T11:50:26;93200.22;;;19.77;39.25
15195;BME280;7698;42.478;23.756;2023-02-23T11:53:00;93198.81;;;19.15;38.01
15195;BME280;7698;42.478;23.756;2023-02-23T11:55:30;93193.56;;;19.05;39.34
15195;BME280;7698;42.478;23.756;2023-02-23T11:58:08;93206.25;;;19.23;39.45
15195;BME280;7698;42.478;23.756;2023-02-23T12:00:37;93204.19;;;19.01;38.59
15195;BME280;7698;42.478;23.756;2023-02-23T12:03:04;93202.25;;;18.64;40.12
15195;BME280;7698;42.478;23.756;2023-02-23T12:05:32;93196.06;;;19.01;40.72
15195;BME280;7698;42.478;23.756;2023-02-23T12:08:03;93206.00;;;19.57;40.41
15195;BME280;7698;42.478;23.756;2023-02-23T12:10:36;93208.91;;;19.93;38.29
15195;BME280;7698;42.478;23.756;2023-02-23T12:13:15;93210.31;;;20.18;38.54
15195;BME280;7698;42.478;23.756;2023-02-23T12:15:50;93209.50;;;20.31;37.92
15195;BME280;7698;42.478;23.756;2023-02-23T12:18:32;93208.69;;;19.89;38.10
15195;BME280;7698;42.478;23.756;2023-02-23T12:21:12;93209.31;;;20.14;38.96
15195;BME280;7698;42.478;23.756;2023-02-23T12:23:42;93211.44;;;20.44;38.57
15195;BME280;7698;42.478;23.756;2023-02-23T12:26:13;93215.75;;;20.59;37.46
15195;BME280;7698;42.478;23.756;2023-02-23T12:28:48;93212.50;;;20.02;38.54
15195;BME280;7698;42.478;23.756;2023-02-23T12:31:23;93210.28;;;19.25;39.49
15195;BME280;7698;42.478;23.756;2023-02-23T12:33:54;93204.63;;;19.59;39.90
15195;BME280;7698;42.478;23.756;2023-02-23T12:36:26;93215.72;;;19.90;38.96
15195;BME280;7698;42.478;23.756;2023-02-23T12:38:59;93223.50;;;19.65;39.04
15195;BME280;7698;42.478;23.756;2023-02-23T12:41:34;93214.88;;;19.76;39.41
15195;BME280;7698;42.478;23.756;2023-02-23T12:44:10;93223.72;;;19.68;39.00
15195;BME280;7698;42.478;23.756;2023-02-23T12:46:45;93216.97;;;19.14;38.93
15195;BME280;7698;42.478;23.756;2023-02-23T12:49:20;93214.78;;;18.36;40.32
15195;BME280;7698;42.478;23.756;2023-02-23T12:51:53;93223.31;;;18.01;42.17
15195;BME280;7698;42.478;23.756;2023-02-23T12:54:21;93222.28;;;17.97;42.37
15195;BME280;7698;42.478;23.756;2023-02-23T12:57:01;93222.59;;;17.90;42.40
15195;BME280;7698;42.478;23.756;2023-02-23T12:59:57;93212.38;;;17.87;41.60
15195;BME280;7698;42.478;23.756;2023-02-23T13:02:48;93214.41;;;17.42;42.26
15195;BME280;7698;42.478;23.756;2023-02-23T13:05:22;93214.16;;;17.39;42.94
15195;BME280;7698;42.478;23.756;2023-02-23T13:08:02;93214.22;;;17.34;43.75
15195;BME280;7698;42.478;23.756;2023-02-23T13:10:41;93225.25;;;17.37;43.22
15195;BME280;7698;42.478;23.756;2023-02-23T13:13:21;93224.31;;;16.84;43.64
15195;BME280;7698;42.478;23.756;2023-02-23T13:15:56;93220.66;;;16.59;44.47
15195;BME280;7698;42.478;23.756;2023-02-23T13:18:30;93217.06;;;16.74;43.90
15195;BME280;7698;42.478;23.756;2023-02-23T13:21:04;93221.53;;;16.94;43.92
15195;BME280;7698;42.478;23.756;2023-02-23T13:23:35;93223.78;;;16.82;44.21
15195;BME280;7698;42.478;23.756;2023-02-23T13:26:10;93226.69;;;16.90;44.18
15195;BME280;7698;42.478;23.756;2023-02-23T13:28:49;93229.84;;;16.98;44.39
15195;BME280;7698;42.478;23.756;2023-02-23T13:31:22;93230.91;;;17.02;44.69